sensor_id;sensor_type;location;lat;lon;timestamp;pressure;altitude;pressure_sealevel;temperature;humidity
13593;BME280;6867;50.998;4.250;2022-12-29T00:02:00;99878.19;;;13.57;81.28
13593;BME280;6867;50.998;4.250;2022-12-29T00:04:27;99857.00;;;13.49;80.58
13593;BME280;6867;50.998;4.250;2022-12-29T00:06:55;99859.81;;;13.76;80.67
13593;BME280;6867;50.998;4.250;2022-12-29T00:09:22;99862.69;;;13.69;80.22
13593;BME280;6867;50.998;4.250;2022-12-29T00:11:48;99848.66;;;13.67;79.58
13593;BME280;6867;50.998;4.250;2022-12-29T00:14:15;99838.72;;;13.51;80.08
13593;BME280;6867;50.998;4.250;2022-12-29T00:17:00;99825.56;;;13.37;80.02
13593;BME280;6867;50.998;4.250;2022-12-29T00:19:27;99836.75;;;13.46;80.16
13593;BME280;6867;50.998;4.250;2022-12-29T00:22:14;99837.47;;;13.41;79.61
13593;BME280;6867;50.998;4.250;2022-12-29T00:24:59;99825.84;;;13.58;78.94
13593;BME280;6867;50.998;4.250;2022-12-29T00:27:58;99811.47;;;13.52;78.57
13593;BME280;6867;50.998;4.250;2022-12-29T00:30:42;99812.66;;;13.61;78.45
13593;BME280;6867;50.998;4.250;2022-12-29T00:33:29;99810.03;;;13.88;77.56
13593;BME280;6867;50.998;4.250;2022-12-29T00:36:16;99811.72;;;13.94;76.76
13593;BME280;6867;50.998;4.250;2022-12-29T00:38:49;99803.38;;;13.74;76.43
13593;BME280;6867;50.998;4.250;2022-12-29T00:41:35;99784.84;;;13.83;75.45
13593;BME280;6867;50.998;4.250;2022-12-29T00:44:19;99783.47;;;13.58;76.21
13593;BME280;6867;50.998;4.250;2022-12-29T00:46:45;99798.72;;;13.48;76.42
13593;BME280;6867;50.998;4.250;2022-12-29T00:49:13;99787.38;;;13.67;75.66
13593;BME280;6867;50.998;4.250;2022-12-29T00:52:00;99783.13;;;13.72;75.62
13593;BME280;6867;50.998;4.250;2022-12-29T00:54:31;99782.16;;;13.61;75.05
13593;BME280;6867;50.998;4.250;2022-12-29T00:56:58;99779.72;;;13.81;74.84
13593;BME280;6867;50.998;4.250;2022-12-29T00:59:25;99779.72;;;14.08;73.95
13593;BME280;6867;50.998;4.250;2022-12-29T01:01:52;99777.78;;;13.77;74.71
13593;BME280;6867;50.998;4.250;2022-12-29T01:04:20;99790.84;;;13.63;74.93
13593;BME280;6867;50.998;4.250;2022-12-29T01:06:47;99793.56;;;13.90;74.02
13593;BME280;6867;50.998;4.250;2022-12-29T01:09:14;99778.44;;;14.16;73.61
13593;BME280;6867;50.998;4.250;2022-12-29T01:11:59;99777.63;;;14.15;72.94
13593;BME280;6867;50.998;4.250;2022-12-29T01:14:27;99763.34;;;14.20;72.91
13593;BME280;6867;50.998;4.250;2022-12-29T01:16:54;99775.44;;;14.12;73.00
13593;BME280;6867;50.998;4.250;2022-12-29T01:19:21;99778.00;;;13.97;73.35
13593;BME280;6867;50.998;4.250;2022-12-29T01:21:49;99792.41;;;14.08;73.63
13593;BME280;6867;50.998;4.250;2022-12-29T01:24:17;99789.09;;;14.01;74.26
13593;BME280;6867;50.998;4.250;2022-12-29T01:26:45;99790.16;;;14.00;74.77
13593;BME280;6867;50.998;4.250;2022-12-29T01:29:13;99807.47;;;13.55;75.67
13593;BME280;6867;50.998;4.250;2022-12-29T01:31:40;99817.19;;;13.78;75.62
13593;BME280;6867;50.998;4.250;2022-12-29T01:34:07;99826.09;;;13.56;76.71
13593;BME280;6867;50.998;4.250;2022-12-29T01:36:33;99820.16;;;13.76;76.13
13593;BME280;6867;50.998;4.250;2022-12-29T01:39:01;99809.09;;;13.78;75.58
13593;BME280;6867;50.998;4.250;2022-12-29T01:41:28;99799.00;;;13.68;75.98
13593;BME280;6867;50.998;4.250;2022-12-29T01:43:56;99808.31;;;13.82;75.89
13593;BME280;6867;50.998;4.250;2022-12-29T01:46:29;99821.03;;;13.60;76.34
13593;BME280;6867;50.998;4.250;2022-12-29T01:49:04;99836.88;;;13.56;76.74
13593;BME280;6867;50.998;4.250;2022-12-29T01:51:33;99828.09;;;13.66;76.33
13593;BME280;6867;50.998;4.250;2022-12-29T01:54:04;99821.78;;;13.77;76.65
13593;BME280;6867;50.998;4.250;2022-12-29T01:56:34;99802.16;;;13.87;75.53
13593;BME280;6867;50.998;4.250;2022-12-29T01:59:02;99813.78;;;13.65;76.48
13593;BME280;6867;50.998;4.250;2022-12-29T02:01:33;99826.03;;;13.73;76.18
13593;BME280;6867;50.998;4.250;2022-12-29T02:04:00;99820.09;;;13.71;76.60
13593;BME280;6867;50.998;4.250;2022-12-29T02:06:31;99801.47;;;13.75;76.31
13593;BME280;6867;50.998;4.250;2022-12-29T02:08:59;99796.34;;;13.73;75.66
13593;BME280;6867;50.998;4.250;2022-12-29T02:11:27;99811.34;;;13.42;76.55
13593;BME280;6867;50.998;4.250;2022-12-29T02:13:55;99799.66;;;13.58;76.15
13593;BME280;6867;50.998;4.250;2022-12-29T02:16:34;99785.13;;;13.59;75.79
13593;BME280;6867;50.998;4.250;2022-12-29T02:19:33;99795.59;;;13.56;75.93
13593;BME280;6867;50.998;4.250;2022-12-29T02:22:15;99781.63;;;13.59;75.65
13593;BME280;6867;50.998;4.250;2022-12-29T02:25:11;99802.84;;;13.33;76.39
13593;BME280;6867;50.998;4.250;2022-12-29T02:27:54;99794.59;;;13.40;76.13
13593;BME280;6867;50.998;4.250;2022-12-29T02:30:42;99800.69;;;13.52;76.60
13593;BME280;6867;50.998;4.250;2022-12-29T02:33:21;99783.84;;;13.45;75.85
13593;BME280;6867;50.998;4.250;2022-12-29T02:35:55;99785.50;;;13.46;75.81
13593;BME280;6867;50.998;4.250;2022-12-29T02:38:35;99782.41;;;13.37;76.18
13593;BME280;6867;50.998;4.250;2022-12-29T02:41:13;99778.03;;;13.14;76.25
13593;BME280;6867;50.998;4.250;2022-12-29T02:43:50;99775.06;;;13.16;76.38
13593;BME280;6867;50.998;4.250;2022-12-29T02:46:21;99767.00;;;13.16;75.93
13593;BME280;6867;50.998;4.250;2022-12-29T02:49:01;99767.25;;;13.14;76.26
13593;BME280;6867;50.998;4.250;2022-12-29T02:51:35;99759.09;;;13.26;75.98
13593;BME280;6867;50.998;4.250;2022-12-29T02:54:04;99750.56;;;13.34;75.47
13593;BME280;6867;50.998;4.250;2022-12-29T02:56:49;99744.53;;;13.27;75.20
13593;BME280;6867;50.998;4.250;2022-12-29T02:59:16;99740.09;;;13.38;75.21
13593;BME280;6867;50.998;4.250;2022-12-29T03:01:59;99731.47;;;13.41;74.80
13593;BME280;6867;50.998;4.250;2022-12-29T03:05:07;99743.34;;;13.40;74.82
13593;BME280;6867;50.998;4.250;2022-12-29T03:07:43;99750.09;;;13.04;74.46
13593;BME280;6867;50.998;4.250;2022-12-29T03:10:19;99771.38;;;13.00;76.09
13593;BME280;6867;50.998;4.250;2022-12-29T03:12:55;99747.31;;;13.15;75.50
13593;BME280;6867;50.998;4.250;2022-12-29T03:15:46;99735.25;;;13.01;75.23
13593;BME280;6867;50.998;4.250;2022-12-29T03:18:34;99743.69;;;12.88;75.07
13593;BME280;6867;50.998;4.250;2022-12-29T03:21:06;99737.41;;;12.82;74.92
13593;BME280;6867;50.998;4.250;2022-12-29T03:23:35;99752.53;;;12.83;74.79
13593;BME280;6867;50.998;4.250;2022-12-29T03:26:06;99746.25;;;12.61;74.90
13593;BME280;6867;50.998;4.250;2022-12-29T03:28:38;99783.13;;;12.27;76.39
13593;BME280;6867;50.998;4.250;2022-12-29T03:31:06;99792.72;;;12.06;77.02
13593;BME280;6867;50.998;4.250;2022-12-29T03:33:37;99807.88;;;12.12;77.33
13593;BME280;6867;50.998;4.250;2022-12-29T03:36:07;99815.06;;;12.06;77.41
13593;BME280;6867;50.998;4.250;2022-12-29T03:38:42;99806.41;;;12.04;77.32
13593;BME280;6867;50.998;4.250;2022-12-29T03:41:12;99806.09;;;12.01;77.34
13593;BME280;6867;50.998;4.250;2022-12-29T03:43:41;99788.06;;;12.46;76.43
13593;BME280;6867;50.998;4.250;2022-12-29T03:46:08;99771.72;;;12.70;74.75
13593;BME280;6867;50.998;4.250;2022-12-29T03:48:36;99758.00;;;12.71;73.89
13593;BME280;6867;50.998;4.250;2022-12-29T03:51:03;99751.97;;;12.48;73.91
13593;BME280;6867;50.998;4.250;2022-12-29T03:53:30;99754.41;;;12.32;73.99
13593;BME280;6867;50.998;4.250;2022-12-29T03:55:56;99773.28;;;12.04;74.57
13593;BME280;6867;50.998;4.250;2022-12-29T03:58:23;99758.00;;;12.21;74.29
13593;BME280;6867;50.998;4.250;2022-12-29T04:00:50;99746.44;;;12.37;73.59
13593;BME280;6867;50.998;4.250;2022-12-29T04:03:17;99729.28;;;12.43;72.83
13593;BME280;6867;50.998;4.250;2022-12-29T04:05:45;99726.00;;;12.25;72.70
13593;BME280;6867;50.998;4.250;2022-12-29T04:08:11;99733.25;;;12.07;73.23
13593;BME280;6867;50.998;4.250;2022-12-29T04:10:38;99741.91;;;12.26;73.11
13593;BME280;6867;50.998;4.250;2022-12-29T04:13:05;99751.81;;;12.37;72.58
13593;BME280;6867;50.998;4.250;2022-12-29T04:15:32;99750.97;;;12.37;72.86
13593;BME280;6867;50.998;4.250;2022-12-29T04:17:58;99749.53;;;12.46;72.22
13593;BME280;6867;50.998;4.250;2022-12-29T04:20:25;99776.69;;;11.99;73.79
13593;BME280;6867;50.998;4.250;2022-12-29T04:23:10;99770.41;;;12.22;73.49
13593;BME280;6867;50.998;4.250;2022-12-29T04:25:37;99775.47;;;12.35;73.02
13593;BME280;6867;50.998;4.250;2022-12-29T04:28:04;99772.69;;;12.30;72.68
13593;BME280;6867;50.998;4.250;2022-12-29T04:30:33;99780.31;;;12.50;72.78
13593;BME280;6867;50.998;4.250;2022-12-29T04:32:59;99774.19;;;12.55;72.28
13593;BME280;6867;50.998;4.250;2022-12-29T04:35:26;99773.84;;;12.85;71.81
13593;BME280;6867;50.998;4.250;2022-12-29T04:37:53;99760.44;;;12.73;71.48
13593;BME280;6867;50.998;4.250;2022-12-29T04:40:21;99754.13;;;13.01;70.72
13593;BME280;6867;50.998;4.250;2022-12-29T04:42:49;99746.75;;;13.13;70.29
13593;BME280;6867;50.998;4.250;2022-12-29T04:45:16;99751.09;;;12.98;70.53
13593;BME280;6867;50.998;4.250;2022-12-29T04:47:42;99761.97;;;13.03;70.24
13593;BME280;6867;50.998;4.250;2022-12-29T04:50:10;99778.38;;;13.01;71.01
13593;BME280;6867;50.998;4.250;2022-12-29T04:52:37;99779.38;;;12.95;70.90
13593;BME280;6867;50.998;4.250;2022-12-29T04:55:05;99773.84;;;12.85;71.04
13593;BME280;6867;50.998;4.250;2022-12-29T04:57:33;99788.59;;;12.49;72.07
13593;BME280;6867;50.998;4.250;2022-12-29T05:00:00;99800.53;;;12.53;72.02
13593;BME280;6867;50.998;4.250;2022-12-29T05:02:29;99790.22;;;12.50;71.55
13593;BME280;6867;50.998;4.250;2022-12-29T05:04:56;99797.09;;;12.57;71.75
13593;BME280;6867;50.998;4.250;2022-12-29T05:07:22;99787.25;;;12.63;71.44
13593;BME280;6867;50.998;4.250;2022-12-29T05:09:50;99772.75;;;12.86;71.05
13593;BME280;6867;50.998;4.250;2022-12-29T05:12:17;99769.13;;;12.58;71.00
13593;BME280;6867;50.998;4.250;2022-12-29T05:14:45;99781.19;;;12.73;70.79
13593;BME280;6867;50.998;4.250;2022-12-29T05:17:11;99778.91;;;12.64;70.79
13593;BME280;6867;50.998;4.250;2022-12-29T05:19:38;99773.84;;;12.68;70.64
13593;BME280;6867;50.998;4.250;2022-12-29T05:22:05;99789.75;;;12.69;70.87
13593;BME280;6867;50.998;4.250;2022-12-29T05:24:32;99785.59;;;12.79;70.84
13593;BME280;6867;50.998;4.250;2022-12-29T05:26:58;99785.59;;;12.45;71.40
13593;BME280;6867;50.998;4.250;2022-12-29T05:29:25;99785.59;;;12.62;71.56
13593;BME280;6867;50.998;4.250;2022-12-29T05:31:53;99792.44;;;12.36;71.57
13593;BME280;6867;50.998;4.250;2022-12-29T05:34:20;99796.63;;;12.60;71.63
13593;BME280;6867;50.998;4.250;2022-12-29T05:36:46;99782.41;;;12.48;71.07
13593;BME280;6867;50.998;4.250;2022-12-29T05:39:13;99781.53;;;12.76;70.24
13593;BME280;6867;50.998;4.250;2022-12-29T05:41:40;99756.19;;;12.77;70.09
13593;BME280;6867;50.998;4.250;2022-12-29T05:44:07;99778.41;;;12.67;70.15
13593;BME280;6867;50.998;4.250;2022-12-29T05:46:34;99776.34;;;12.75;69.62
13593;BME280;6867;50.998;4.250;2022-12-29T05:49:02;99782.06;;;12.44;70.36
13593;BME280;6867;50.998;4.250;2022-12-29T05:51:28;99781.34;;;12.66;69.91
13593;BME280;6867;50.998;4.250;2022-12-29T05:53:55;99778.34;;;12.62;70.00
13593;BME280;6867;50.998;4.250;2022-12-29T05:56:23;99774.81;;;12.62;69.60
13593;BME280;6867;50.998;4.250;2022-12-29T05:58:50;99780.03;;;12.52;69.29
13593;BME280;6867;50.998;4.250;2022-12-29T06:01:16;99783.63;;;12.74;69.47
13593;BME280;6867;50.998;4.250;2022-12-29T06:03:43;99772.28;;;12.72;68.81
13593;BME280;6867;50.998;4.250;2022-12-29T06:06:12;99775.22;;;12.54;69.31
13593;BME280;6867;50.998;4.250;2022-12-29T06:08:38;99767.66;;;12.67;68.67
13593;BME280;6867;50.998;4.250;2022-12-29T06:11:05;99775.06;;;12.60;68.57
13593;BME280;6867;50.998;4.250;2022-12-29T06:13:32;99788.06;;;12.63;68.59
13593;BME280;6867;50.998;4.250;2022-12-29T06:15:59;99781.25;;;12.61;68.16
13593;BME280;6867;50.998;4.250;2022-12-29T06:18:25;99786.50;;;12.34;68.86
13593;BME280;6867;50.998;4.250;2022-12-29T06:20:52;99798.09;;;12.68;68.50
13593;BME280;6867;50.998;4.250;2022-12-29T06:23:20;99783.97;;;12.61;68.08
13593;BME280;6867;50.998;4.250;2022-12-29T06:25:47;99797.63;;;12.54;68.07
13593;BME280;6867;50.998;4.250;2022-12-29T06:28:14;99797.81;;;12.36;68.45
13593;BME280;6867;50.998;4.250;2022-12-29T06:30:43;99779.78;;;12.70;67.52
13593;BME280;6867;50.998;4.250;2022-12-29T06:33:11;99778.06;;;12.98;66.70
13593;BME280;6867;50.998;4.250;2022-12-29T06:35:38;99783.00;;;12.67;67.36
13593;BME280;6867;50.998;4.250;2022-12-29T06:38:05;99779.47;;;12.66;66.91
13593;BME280;6867;50.998;4.250;2022-12-29T06:40:33;99759.59;;;13.06;65.73
13593;BME280;6867;50.998;4.250;2022-12-29T06:43:00;99772.94;;;12.96;65.77
13593;BME280;6867;50.998;4.250;2022-12-29T06:45:27;99775.88;;;13.16;65.88
13593;BME280;6867;50.998;4.250;2022-12-29T06:47:53;99784.03;;;12.83;66.14
13593;BME280;6867;50.998;4.250;2022-12-29T06:50:20;99763.94;;;12.90;65.83
13593;BME280;6867;50.998;4.250;2022-12-29T06:52:47;99755.66;;;13.14;65.09
13593;BME280;6867;50.998;4.250;2022-12-29T06:55:13;99749.25;;;13.20;65.12
13593;BME280;6867;50.998;4.250;2022-12-29T06:57:43;99756.63;;;13.08;65.19
13593;BME280;6867;50.998;4.250;2022-12-29T07:00:10;99768.06;;;13.15;65.01
13593;BME280;6867;50.998;4.250;2022-12-29T07:02:37;99773.31;;;13.05;65.08
13593;BME280;6867;50.998;4.250;2022-12-29T07:05:04;99773.75;;;12.80;65.36
13593;BME280;6867;50.998;4.250;2022-12-29T07:07:32;99784.34;;;12.86;65.01
13593;BME280;6867;50.998;4.250;2022-12-29T07:09:59;99755.84;;;12.90;64.23
13593;BME280;6867;50.998;4.250;2022-12-29T07:12:26;99760.78;;;12.77;64.60
13593;BME280;6867;50.998;4.250;2022-12-29T07:14:54;99764.94;;;12.84;64.66
13593;BME280;6867;50.998;4.250;2022-12-29T07:17:20;99774.78;;;12.95;64.46
13593;BME280;6867;50.998;4.250;2022-12-29T07:19:47;99775.44;;;13.03;64.25
13593;BME280;6867;50.998;4.250;2022-12-29T07:22:14;99767.28;;;12.98;64.19
13593;BME280;6867;50.998;4.250;2022-12-29T07:24:40;99750.13;;;12.87;63.85
13593;BME280;6867;50.998;4.250;2022-12-29T07:27:08;99754.47;;;12.88;63.77
13593;BME280;6867;50.998;4.250;2022-12-29T07:29:36;99753.09;;;12.85;63.33
13593;BME280;6867;50.998;4.250;2022-12-29T07:32:05;99731.22;;;12.65;63.22
13593;BME280;6867;50.998;4.250;2022-12-29T07:34:31;99744.94;;;12.63;63.47
13593;BME280;6867;50.998;4.250;2022-12-29T07:36:58;99773.50;;;12.81;63.45
13593;BME280;6867;50.998;4.250;2022-12-29T07:39:25;99745.22;;;13.01;63.06
13593;BME280;6867;50.998;4.250;2022-12-29T07:41:51;99756.66;;;12.91;63.41
13593;BME280;6867;50.998;4.250;2022-12-29T07:44:18;99755.84;;;12.90;63.23
13593;BME280;6867;50.998;4.250;2022-12-29T07:46:45;99763.72;;;12.92;62.96
13593;BME280;6867;50.998;4.250;2022-12-29T07:49:13;99750.84;;;12.99;62.97
13593;BME280;6867;50.998;4.250;2022-12-29T07:51:40;99768.03;;;12.93;62.98
13593;BME280;6867;50.998;4.250;2022-12-29T07:54:06;99747.47;;;12.70;62.71
13593;BME280;6867;50.998;4.250;2022-12-29T07:56:33;99761.72;;;13.04;62.58
13593;BME280;6867;50.998;4.250;2022-12-29T07:59:00;99750.53;;;12.95;62.35
13593;BME280;6867;50.998;4.250;2022-12-29T08:01:30;99742.22;;;13.19;61.48
13593;BME280;6867;50.998;4.250;2022-12-29T08:03:57;99736.50;;;13.15;61.83
13593;BME280;6867;50.998;4.250;2022-12-29T08:06:25;99746.44;;;13.10;61.93
13593;BME280;6867;50.998;4.250;2022-12-29T08:08:51;99772.31;;;13.11;61.92
13593;BME280;6867;50.998;4.250;2022-12-29T08:11:18;99763.31;;;13.22;61.96
13593;BME280;6867;50.998;4.250;2022-12-29T08:13:45;99770.09;;;13.08;62.48
13593;BME280;6867;50.998;4.250;2022-12-29T08:16:11;99774.75;;;13.12;62.61
13593;BME280;6867;50.998;4.250;2022-12-29T08:18:38;99788.88;;;12.81;63.39
13593;BME280;6867;50.998;4.250;2022-12-29T08:21:05;99826.00;;;12.95;63.92
13593;BME280;6867;50.998;4.250;2022-12-29T08:23:33;99787.13;;;12.75;63.81
13593;BME280;6867;50.998;4.250;2022-12-29T08:26:02;99818.66;;;12.74;64.13
13593;BME280;6867;50.998;4.250;2022-12-29T08:28:29;99802.41;;;12.86;63.69
13593;BME280;6867;50.998;4.250;2022-12-29T08:30:57;99807.00;;;12.85;63.33
13593;BME280;6867;50.998;4.250;2022-12-29T08:33:24;99794.88;;;13.05;62.65
13593;BME280;6867;50.998;4.250;2022-12-29T08:35:51;99776.50;;;13.02;62.55
13593;BME280;6867;50.998;4.250;2022-12-29T08:38:18;99786.72;;;13.00;62.35
13593;BME280;6867;50.998;4.250;2022-12-29T08:40:46;99796.31;;;13.29;62.16
13593;BME280;6867;50.998;4.250;2022-12-29T08:43:13;99830.19;;;12.69;63.79
13593;BME280;6867;50.998;4.250;2022-12-29T08:45:40;99882.84;;;12.60;64.67
13593;BME280;6867;50.998;4.250;2022-12-29T08:48:06;99863.31;;;12.70;64.47
13593;BME280;6867;50.998;4.250;2022-12-29T08:50:33;99892.97;;;13.04;64.65
13593;BME280;6867;50.998;4.250;2022-12-29T08:53:00;99908.72;;;12.78;64.97
13593;BME280;6867;50.998;4.250;2022-12-29T08:55:26;99935.25;;;12.69;66.28
13593;BME280;6867;50.998;4.250;2022-12-29T08:57:55;99929.81;;;12.81;65.98
13593;BME280;6867;50.998;4.250;2022-12-29T09:00:21;99916.94;;;12.55;65.81
13593;BME280;6867;50.998;4.250;2022-12-29T09:02:48;99936.97;;;12.18;66.97
13593;BME280;6867;50.998;4.250;2022-12-29T09:05:15;99964.56;;;12.66;66.36
13593;BME280;6867;50.998;4.250;2022-12-29T09:07:42;99950.00;;;12.50;66.43
13593;BME280;6867;50.998;4.250;2022-12-29T09:10:08;99979.28;;;12.46;67.24
13593;BME280;6867;50.998;4.250;2022-12-29T09:12:35;100010.13;;;12.15;68.20
13593;BME280;6867;50.998;4.250;2022-12-29T09:15:05;100006.94;;;12.42;68.00
13593;BME280;6867;50.998;4.250;2022-12-29T09:17:34;99992.06;;;12.39;67.79
13593;BME280;6867;50.998;4.250;2022-12-29T09:20:11;100020.84;;;12.51;67.84
13593;BME280;6867;50.998;4.250;2022-12-29T09:22:38;100037.66;;;12.29;68.67
13593;BME280;6867;50.998;4.250;2022-12-29T09:25:06;100049.94;;;12.13;69.45
13593;BME280;6867;50.998;4.250;2022-12-29T09:27:34;100038.13;;;12.14;69.15
13593;BME280;6867;50.998;4.250;2022-12-29T09:30:04;100051.00;;;12.12;69.41
13593;BME280;6867;50.998;4.250;2022-12-29T09:32:31;100042.88;;;12.36;68.95
13593;BME280;6867;50.998;4.250;2022-12-29T09:34:57;100046.66;;;12.35;69.04
13593;BME280;6867;50.998;4.250;2022-12-29T09:37:24;100019.63;;;12.18;68.67
13593;BME280;6867;50.998;4.250;2022-12-29T09:39:51;100042.31;;;12.34;68.43
13593;BME280;6867;50.998;4.250;2022-12-29T09:42:23;100058.13;;;12.18;69.14
13593;BME280;6867;50.998;4.250;2022-12-29T09:45:03;100044.66;;;12.30;68.39
13593;BME280;6867;50.998;4.250;2022-12-29T09:47:32;100069.47;;;12.44;68.60
13593;BME280;6867;50.998;4.250;2022-12-29T09:50:02;100085.06;;;12.30;69.62
13593;BME280;6867;50.998;4.250;2022-12-29T09:52:32;100077.44;;;12.39;69.30
13593;BME280;6867;50.998;4.250;2022-12-29T09:55:03;100084.78;;;12.67;68.51
13593;BME280;6867;50.998;4.250;2022-12-29T09:57:34;100069.28;;;12.74;68.52
13593;BME280;6867;50.998;4.250;2022-12-29T10:00:06;100059.28;;;12.34;68.55
13593;BME280;6867;50.998;4.250;2022-12-29T10:02:40;100056.13;;;12.78;67.88
13593;BME280;6867;50.998;4.250;2022-12-29T10:05:26;100069.41;;;12.67;67.93
13593;BME280;6867;50.998;4.250;2022-12-29T10:08:04;100054.19;;;13.02;67.13
13593;BME280;6867;50.998;4.250;2022-12-29T10:10:37;100042.19;;;12.81;66.86
13593;BME280;6867;50.998;4.250;2022-12-29T10:13:20;100078.50;;;12.78;66.67
13593;BME280;6867;50.998;4.250;2022-12-29T10:15:59;100064.78;;;12.28;67.22
13593;BME280;6867;50.998;4.250;2022-12-29T10:18:46;100052.91;;;12.64;66.77
13593;BME280;6867;50.998;4.250;2022-12-29T10:21:22;100054.22;;;12.50;66.59
13593;BME280;6867;50.998;4.250;2022-12-29T10:23:52;100070.59;;;12.60;67.12
13593;BME280;6867;50.998;4.250;2022-12-29T10:26:21;100055.91;;;12.79;66.39
13593;BME280;6867;50.998;4.250;2022-12-29T10:28:51;100052.56;;;13.01;65.80
13593;BME280;6867;50.998;4.250;2022-12-29T10:31:23;100041.47;;;13.14;65.42
13593;BME280;6867;50.998;4.250;2022-12-29T10:33:57;100035.97;;;13.37;64.82
13593;BME280;6867;50.998;4.250;2022-12-29T10:36:30;100028.84;;;13.31;64.27
13593;BME280;6867;50.998;4.250;2022-12-29T10:39:05;100034.34;;;13.36;64.05
13593;BME280;6867;50.998;4.250;2022-12-29T10:41:38;100040.22;;;13.33;63.95
13593;BME280;6867;50.998;4.250;2022-12-29T10:44:11;100024.28;;;13.65;63.51
13593;BME280;6867;50.998;4.250;2022-12-29T10:46:40;100009.56;;;13.39;62.90
13593;BME280;6867;50.998;4.250;2022-12-29T10:49:14;100026.50;;;13.68;62.68
13593;BME280;6867;50.998;4.250;2022-12-29T10:51:44;100012.13;;;13.63;62.41
13593;BME280;6867;50.998;4.250;2022-12-29T10:54:15;100019.81;;;13.71;62.32
13593;BME280;6867;50.998;4.250;2022-12-29T10:56:47;99994.28;;;13.62;62.10
13593;BME280;6867;50.998;4.250;2022-12-29T10:59:20;100000.63;;;13.89;61.58
13593;BME280;6867;50.998;4.250;2022-12-29T11:01:55;100030.16;;;13.62;62.32
13593;BME280;6867;50.998;4.250;2022-12-29T11:04:45;99993.72;;;13.43;61.75
13593;BME280;6867;50.998;4.250;2022-12-29T11:07:16;100020.91;;;13.41;61.69
13593;BME280;6867;50.998;4.250;2022-12-29T11:09:45;99990.34;;;13.69;61.46
13593;BME280;6867;50.998;4.250;2022-12-29T11:12:21;100014.06;;;13.67;61.11
13593;BME280;6867;50.998;4.250;2022-12-29T11:15:01;100009.25;;;13.36;61.25
13593;BME280;6867;50.998;4.250;2022-12-29T11:17:28;100020.03;;;13.69;61.01
13593;BME280;6867;50.998;4.250;2022-12-29T11:19:56;100036.72;;;13.66;61.07
13593;BME280;6867;50.998;4.250;2022-12-29T11:22:25;100037.28;;;13.52;61.49
13593;BME280;6867;50.998;4.250;2022-12-29T11:24:54;100055.59;;;13.83;61.47
13593;BME280;6867;50.998;4.250;2022-12-29T11:27:31;100043.50;;;13.69;61.67
13593;BME280;6867;50.998;4.250;2022-12-29T11:29:58;100028.53;;;13.61;60.75
13593;BME280;6867;50.998;4.250;2022-12-29T11:32:26;100060.50;;;13.69;61.25
13593;BME280;6867;50.998;4.250;2022-12-29T11:34:56;100046.09;;;13.98;60.72
13593;BME280;6867;50.998;4.250;2022-12-29T11:37:27;100039.94;;;14.19;59.86
13593;BME280;6867;50.998;4.250;2022-12-29T11:39:57;100037.44;;;13.95;60.36
13593;BME280;6867;50.998;4.250;2022-12-29T11:42:33;100034.31;;;13.87;60.23
13593;BME280;6867;50.998;4.250;2022-12-29T11:45:05;100058.22;;;13.61;60.94
13593;BME280;6867;50.998;4.250;2022-12-29T11:47:33;100076.88;;;13.63;61.36
13593;BME280;6867;50.998;4.250;2022-12-29T11:50:03;100070.09;;;13.77;60.60
13593;BME280;6867;50.998;4.250;2022-12-29T11:52:33;100094.28;;;13.55;61.92
13593;BME280;6867;50.998;4.250;2022-12-29T11:55:03;100083.25;;;13.57;61.64
13593;BME280;6867;50.998;4.250;2022-12-29T11:57:33;100096.00;;;13.61;61.79
13593;BME280;6867;50.998;4.250;2022-12-29T12:00:05;100078.66;;;13.74;61.35
13593;BME280;6867;50.998;4.250;2022-12-29T12:02:43;100072.38;;;13.68;61.35
13593;BME280;6867;50.998;4.250;2022-12-29T12:05:19;100089.84;;;13.49;61.84
13593;BME280;6867;50.998;4.250;2022-12-29T12:07:49;100073.78;;;13.88;61.17
13593;BME280;6867;50.998;4.250;2022-12-29T12:10:21;100096.25;;;13.60;62.07
13593;BME280;6867;50.998;4.250;2022-12-29T12:12:56;100104.19;;;13.83;61.85
13593;BME280;6867;50.998;4.250;2022-12-29T12:15:30;100084.88;;;13.91;61.08
13593;BME280;6867;50.998;4.250;2022-12-29T12:18:05;100060.09;;;13.94;60.56
13593;BME280;6867;50.998;4.250;2022-12-29T12:20:48;100061.88;;;14.06;60.41
13593;BME280;6867;50.998;4.250;2022-12-29T12:23:25;100059.84;;;13.96;60.35
13593;BME280;6867;50.998;4.250;2022-12-29T12:25:59;100073.34;;;13.79;60.57
13593;BME280;6867;50.998;4.250;2022-12-29T12:28:36;100117.56;;;13.44;62.52
13593;BME280;6867;50.998;4.250;2022-12-29T12:31:06;100124.34;;;13.18;62.81
13593;BME280;6867;50.998;4.250;2022-12-29T12:33:42;100122.22;;;13.49;62.79
13593;BME280;6867;50.998;4.250;2022-12-29T12:36:25;100136.09;;;13.41;62.97
13593;BME280;6867;50.998;4.250;2022-12-29T12:39:02;100114.50;;;13.69;62.38
13593;BME280;6867;50.998;4.250;2022-12-29T12:41:44;100099.38;;;13.85;60.94
13593;BME280;6867;50.998;4.250;2022-12-29T12:44:20;100082.38;;;13.85;60.97
13593;BME280;6867;50.998;4.250;2022-12-29T12:47:16;100079.06;;;14.00;60.88
13593;BME280;6867;50.998;4.250;2022-12-29T12:50:03;100144.59;;;13.78;62.00
13593;BME280;6867;50.998;4.250;2022-12-29T12:52:47;100122.13;;;14.06;61.77
13593;BME280;6867;50.998;4.250;2022-12-29T12:55:38;100109.75;;;13.77;61.39
13593;BME280;6867;50.998;4.250;2022-12-29T12:58:15;100118.09;;;14.26;60.96
13593;BME280;6867;50.998;4.250;2022-12-29T13:00:54;100125.94;;;14.27;61.06
13593;BME280;6867;50.998;4.250;2022-12-29T13:03:38;100100.91;;;14.15;60.76
13593;BME280;6867;50.998;4.250;2022-12-29T13:06:18;100101.75;;;13.99;60.80
13593;BME280;6867;50.998;4.250;2022-12-29T13:11:56;100145.41;;;13.62;62.50
13593;BME280;6867;50.998;4.250;2022-12-29T13:14:35;100112.06;;;13.68;61.77
13593;BME280;6867;50.998;4.250;2022-12-29T13:17:08;100133.41;;;13.86;61.40
13593;BME280;6867;50.998;4.250;2022-12-29T13:19:41;100135.34;;;13.74;61.99
13593;BME280;6867;50.998;4.250;2022-12-29T13:22:16;100154.84;;;13.48;62.81
13593;BME280;6867;50.998;4.250;2022-12-29T13:24:54;100193.03;;;13.85;63.48
13593;BME280;6867;50.998;4.250;2022-12-29T13:27:29;100123.94;;;13.84;62.22
13593;BME280;6867;50.998;4.250;2022-12-29T13:30:02;100160.34;;;13.24;63.31
13593;BME280;6867;50.998;4.250;2022-12-29T13:32:42;100143.94;;;13.14;63.00